Portada
METAR-TAF:

METAR-TAF

Aeroports :

Bhavnagar, Índia

latitud: 21-45-08N, longitud: 72-11-07E, altitud: 6 m

Observació

L'informe es va fer fa 20 minuts, a les 11:00 UTC
Vent 5 kt del Nord
Temperatura 33°C
Humitat 21%
Pressió 1011 hPa
Visibilitat: 6000 m

METAR: VABV 261100Z 01005KT 6000 NSC 33/08 Q1011

Hora: 16:50 (11:20 UTC)

Pronòstic

L'informe es va fer fa 3 hores i 20 minuts, a les 08:00 UTC
Pronòstic vàlid del 26 a les 09 UTC al 26 a les 18 UTC
Vent 5 kt del Nord/Nord-Est
Visibilitat: 4000 m
fum
Evolucionant progressivament
entre 26 i 16 UTC
Vent 8 kt del Nord/Nord-Est
Visibilitat: 3000 m

TAF: VABV 260800Z 2609/2618 02005KT 4000 FU NSC BECMG 2616 02008KT 3000

Observacions i pronòstics meteorològics de més de 4000 aeroports (METAR i TAF).

Les estacions disponibles són els punts grocs i vermells al mapa.

Posi el ratolí al punt desitjat per veure el nom de l'estació.

Feu clic per veure les observacions i els pronòstics meteorològics.

Per canviar el mapa: feu clic els botons verds amb una creu de color negre per apropar; al botó verd amb un guió per allunyar la imatge; o en les fletxes verdes per a mapes adjacents.


METAR-TAF: